sensor_id;sensor_type;location;lat;lon;timestamp;P1;durP1;ratioP1;P2;durP2;ratioP2
3771;SDS011;1901;48.172;12.824;2024-03-06T00:02:10;20.70;;;10.27;;
3771;SDS011;1901;48.172;12.824;2024-03-06T00:04:35;21.93;;;10.03;;
3771;SDS011;1901;48.172;12.824;2024-03-06T00:07:01;23.20;;;10.45;;
3771;SDS011;1901;48.172;12.824;2024-03-06T00:09:26;24.53;;;10.00;;
3771;SDS011;1901;48.172;12.824;2024-03-06T00:11:54;27.13;;;10.68;;
3771;SDS011;1901;48.172;12.824;2024-03-06T00:14:20;24.42;;;9.95;;
3771;SDS011;1901;48.172;12.824;2024-03-06T00:16:46;24.02;;;10.27;;
3771;SDS011;1901;48.172;12.824;2024-03-06T00:19:12;35.70;;;13.80;;
3771;SDS011;1901;48.172;12.824;2024-03-06T00:21:38;28.95;;;11.80;;
3771;SDS011;1901;48.172;12.824;2024-03-06T00:24:03;22.80;;;10.60;;
3771;SDS011;1901;48.172;12.824;2024-03-06T00:26:29;21.47;;;8.73;;
3771;SDS011;1901;48.172;12.824;2024-03-06T00:28:54;26.08;;;10.93;;
3771;SDS011;1901;48.172;12.824;2024-03-06T00:31:19;26.42;;;10.02;;
3771;SDS011;1901;48.172;12.824;2024-03-06T00:33:44;22.60;;;9.20;;
3771;SDS011;1901;48.172;12.824;2024-03-06T00:36:09;25.50;;;9.40;;
3771;SDS011;1901;48.172;12.824;2024-03-06T00:38:35;23.65;;;10.45;;
3771;SDS011;1901;48.172;12.824;2024-03-06T00:41:00;21.80;;;10.93;;
3771;SDS011;1901;48.172;12.824;2024-03-06T00:43:25;24.13;;;9.67;;
3771;SDS011;1901;48.172;12.824;2024-03-06T00:45:50;23.17;;;9.90;;
3771;SDS011;1901;48.172;12.824;2024-03-06T00:48:16;22.42;;;8.95;;
3771;SDS011;1901;48.172;12.824;2024-03-06T00:50:41;17.97;;;8.53;;
3771;SDS011;1901;48.172;12.824;2024-03-06T00:53:06;21.63;;;8.43;;
3771;SDS011;1901;48.172;12.824;2024-03-06T00:55:31;21.10;;;8.53;;
3771;SDS011;1901;48.172;12.824;2024-03-06T00:57:56;22.23;;;8.83;;
3771;SDS011;1901;48.172;12.824;2024-03-06T01:00:22;18.03;;;9.33;;
3771;SDS011;1901;48.172;12.824;2024-03-06T01:02:47;20.43;;;7.97;;
3771;SDS011;1901;48.172;12.824;2024-03-06T01:05:12;23.52;;;9.38;;
3771;SDS011;1901;48.172;12.824;2024-03-06T01:07:37;20.90;;;9.27;;
3771;SDS011;1901;48.172;12.824;2024-03-06T01:10:03;21.25;;;8.27;;
3771;SDS011;1901;48.172;12.824;2024-03-06T01:12:29;20.00;;;9.73;;
3771;SDS011;1901;48.172;12.824;2024-03-06T01:14:54;20.97;;;9.40;;
3771;SDS011;1901;48.172;12.824;2024-03-06T01:17:19;18.83;;;8.83;;
3771;SDS011;1901;48.172;12.824;2024-03-06T01:19:44;22.40;;;9.03;;
3771;SDS011;1901;48.172;12.824;2024-03-06T01:22:10;23.63;;;9.83;;
3771;SDS011;1901;48.172;12.824;2024-03-06T01:24:35;19.73;;;9.30;;
3771;SDS011;1901;48.172;12.824;2024-03-06T01:27:00;22.83;;;9.57;;
3771;SDS011;1901;48.172;12.824;2024-03-06T01:29:27;22.88;;;9.57;;
3771;SDS011;1901;48.172;12.824;2024-03-06T01:31:53;22.15;;;9.43;;
3771;SDS011;1901;48.172;12.824;2024-03-06T01:34:18;25.75;;;9.93;;
3771;SDS011;1901;48.172;12.824;2024-03-06T01:36:44;25.20;;;9.55;;
3771;SDS011;1901;48.172;12.824;2024-03-06T01:39:09;24.52;;;9.10;;
3771;SDS011;1901;48.172;12.824;2024-03-06T01:41:34;23.17;;;10.27;;
3771;SDS011;1901;48.172;12.824;2024-03-06T01:44:00;21.63;;;9.77;;
3771;SDS011;1901;48.172;12.824;2024-03-06T01:46:26;22.85;;;9.25;;
3771;SDS011;1901;48.172;12.824;2024-03-06T01:48:51;21.80;;;9.17;;
3771;SDS011;1901;48.172;12.824;2024-03-06T01:51:16;22.42;;;9.38;;
3771;SDS011;1901;48.172;12.824;2024-03-06T01:53:41;23.53;;;9.27;;
3771;SDS011;1901;48.172;12.824;2024-03-06T01:56:06;24.43;;;9.00;;
3771;SDS011;1901;48.172;12.824;2024-03-06T01:58:32;24.60;;;9.55;;
3771;SDS011;1901;48.172;12.824;2024-03-06T02:00:58;24.13;;;8.77;;
3771;SDS011;1901;48.172;12.824;2024-03-06T02:03:24;22.88;;;9.50;;
3771;SDS011;1901;48.172;12.824;2024-03-06T02:05:50;28.88;;;10.20;;
3771;SDS011;1901;48.172;12.824;2024-03-06T02:08:15;23.15;;;9.50;;
3771;SDS011;1901;48.172;12.824;2024-03-06T02:10:41;23.40;;;9.27;;
3771;SDS011;1901;48.172;12.824;2024-03-06T02:13:06;23.53;;;9.07;;
3771;SDS011;1901;48.172;12.824;2024-03-06T02:15:31;22.77;;;10.20;;
3771;SDS011;1901;48.172;12.824;2024-03-06T02:17:56;22.17;;;9.23;;
3771;SDS011;1901;48.172;12.824;2024-03-06T02:20:23;26.03;;;9.43;;
3771;SDS011;1901;48.172;12.824;2024-03-06T02:22:48;24.02;;;9.45;;
3771;SDS011;1901;48.172;12.824;2024-03-06T02:25:13;26.87;;;9.43;;
3771;SDS011;1901;48.172;12.824;2024-03-06T02:27:40;22.13;;;10.07;;
3771;SDS011;1901;48.172;12.824;2024-03-06T02:30:05;27.53;;;11.03;;
3771;SDS011;1901;48.172;12.824;2024-03-06T02:32:31;28.45;;;10.85;;
3771;SDS011;1901;48.172;12.824;2024-03-06T02:34:56;23.60;;;9.57;;
3771;SDS011;1901;48.172;12.824;2024-03-06T02:37:21;26.30;;;10.07;;
3771;SDS011;1901;48.172;12.824;2024-03-06T02:39:47;26.02;;;10.27;;
3771;SDS011;1901;48.172;12.824;2024-03-06T02:42:12;31.23;;;9.97;;
3771;SDS011;1901;48.172;12.824;2024-03-06T02:44:37;24.20;;;9.67;;
3771;SDS011;1901;48.172;12.824;2024-03-06T02:47:03;22.35;;;10.65;;
3771;SDS011;1901;48.172;12.824;2024-03-06T02:49:28;23.20;;;9.70;;
3771;SDS011;1901;48.172;12.824;2024-03-06T02:51:53;20.33;;;9.40;;
3771;SDS011;1901;48.172;12.824;2024-03-06T02:54:19;20.73;;;8.18;;
3771;SDS011;1901;48.172;12.824;2024-03-06T02:56:44;24.27;;;10.60;;
3771;SDS011;1901;48.172;12.824;2024-03-06T02:59:09;31.03;;;9.90;;
3771;SDS011;1901;48.172;12.824;2024-03-06T03:01:34;27.30;;;9.93;;
3771;SDS011;1901;48.172;12.824;2024-03-06T03:04:00;25.27;;;10.83;;
3771;SDS011;1901;48.172;12.824;2024-03-06T03:06:25;29.08;;;10.55;;
3771;SDS011;1901;48.172;12.824;2024-03-06T03:08:50;29.33;;;11.10;;
3771;SDS011;1901;48.172;12.824;2024-03-06T03:11:15;31.17;;;11.90;;
3771;SDS011;1901;48.172;12.824;2024-03-06T03:13:41;27.75;;;10.68;;
3771;SDS011;1901;48.172;12.824;2024-03-06T03:16:06;26.93;;;11.23;;
3771;SDS011;1901;48.172;12.824;2024-03-06T03:18:32;31.42;;;10.48;;
3771;SDS011;1901;48.172;12.824;2024-03-06T03:20:57;26.13;;;10.13;;
3771;SDS011;1901;48.172;12.824;2024-03-06T03:23:22;28.37;;;10.80;;
3771;SDS011;1901;48.172;12.824;2024-03-06T03:25:48;25.90;;;9.97;;
3771;SDS011;1901;48.172;12.824;2024-03-06T03:28:14;25.58;;;10.55;;
3771;SDS011;1901;48.172;12.824;2024-03-06T03:30:39;24.93;;;10.80;;
3771;SDS011;1901;48.172;12.824;2024-03-06T03:33:04;29.52;;;10.38;;
3771;SDS011;1901;48.172;12.824;2024-03-06T03:35:29;32.95;;;11.70;;
3771;SDS011;1901;48.172;12.824;2024-03-06T03:37:56;32.25;;;12.77;;
3771;SDS011;1901;48.172;12.824;2024-03-06T03:40:21;34.33;;;12.67;;
3771;SDS011;1901;48.172;12.824;2024-03-06T03:42:47;32.63;;;11.68;;
3771;SDS011;1901;48.172;12.824;2024-03-06T03:45:13;39.13;;;13.50;;
3771;SDS011;1901;48.172;12.824;2024-03-06T03:47:38;35.38;;;12.57;;
3771;SDS011;1901;48.172;12.824;2024-03-06T03:50:03;38.83;;;13.93;;
3771;SDS011;1901;48.172;12.824;2024-03-06T03:52:29;37.35;;;13.13;;
3771;SDS011;1901;48.172;12.824;2024-03-06T03:54:54;34.00;;;11.82;;
3771;SDS011;1901;48.172;12.824;2024-03-06T03:57:20;35.38;;;12.63;;
3771;SDS011;1901;48.172;12.824;2024-03-06T03:59:45;31.47;;;11.77;;
3771;SDS011;1901;48.172;12.824;2024-03-06T04:02:10;38.77;;;12.93;;
3771;SDS011;1901;48.172;12.824;2024-03-06T04:04:35;35.97;;;13.48;;
3771;SDS011;1901;48.172;12.824;2024-03-06T04:07:00;34.53;;;13.17;;
3771;SDS011;1901;48.172;12.824;2024-03-06T04:09:29;29.50;;;12.25;;
3771;SDS011;1901;48.172;12.824;2024-03-06T04:11:55;34.45;;;13.13;;
3771;SDS011;1901;48.172;12.824;2024-03-06T04:14:20;35.10;;;13.10;;
3771;SDS011;1901;48.172;12.824;2024-03-06T04:16:46;34.25;;;12.95;;
3771;SDS011;1901;48.172;12.824;2024-03-06T04:19:11;28.42;;;12.65;;
3771;SDS011;1901;48.172;12.824;2024-03-06T04:21:40;36.05;;;14.57;;
3771;SDS011;1901;48.172;12.824;2024-03-06T04:24:05;35.83;;;13.52;;
3771;SDS011;1901;48.172;12.824;2024-03-06T04:26:30;35.40;;;13.37;;
3771;SDS011;1901;48.172;12.824;2024-03-06T04:28:56;35.63;;;11.40;;
3771;SDS011;1901;48.172;12.824;2024-03-06T04:31:21;33.87;;;13.23;;
3771;SDS011;1901;48.172;12.824;2024-03-06T04:33:46;30.73;;;13.37;;
3771;SDS011;1901;48.172;12.824;2024-03-06T04:36:11;33.40;;;12.82;;
3771;SDS011;1901;48.172;12.824;2024-03-06T04:38:37;34.60;;;13.77;;
3771;SDS011;1901;48.172;12.824;2024-03-06T04:41:02;36.42;;;15.25;;
3771;SDS011;1901;48.172;12.824;2024-03-06T04:43:29;40.25;;;13.52;;
3771;SDS011;1901;48.172;12.824;2024-03-06T04:45:55;31.80;;;13.70;;
3771;SDS011;1901;48.172;12.824;2024-03-06T04:48:20;33.40;;;13.80;;
3771;SDS011;1901;48.172;12.824;2024-03-06T04:50:45;37.93;;;14.03;;
3771;SDS011;1901;48.172;12.824;2024-03-06T04:53:10;42.20;;;14.90;;
3771;SDS011;1901;48.172;12.824;2024-03-06T04:55:35;37.37;;;14.17;;
3771;SDS011;1901;48.172;12.824;2024-03-06T04:58:02;37.08;;;14.18;;
3771;SDS011;1901;48.172;12.824;2024-03-06T05:00:27;33.42;;;14.10;;
3771;SDS011;1901;48.172;12.824;2024-03-06T05:02:54;43.42;;;15.95;;
3771;SDS011;1901;48.172;12.824;2024-03-06T05:05:20;40.05;;;14.32;;
3771;SDS011;1901;48.172;12.824;2024-03-06T05:07:46;38.53;;;14.30;;
3771;SDS011;1901;48.172;12.824;2024-03-06T05:10:11;34.33;;;13.50;;
3771;SDS011;1901;48.172;12.824;2024-03-06T05:12:36;35.07;;;13.53;;
3771;SDS011;1901;48.172;12.824;2024-03-06T05:15:01;42.97;;;15.83;;
3771;SDS011;1901;48.172;12.824;2024-03-06T05:17:27;37.70;;;14.13;;
3771;SDS011;1901;48.172;12.824;2024-03-06T05:19:53;38.28;;;14.82;;
3771;SDS011;1901;48.172;12.824;2024-03-06T05:22:19;32.05;;;13.68;;
3771;SDS011;1901;48.172;12.824;2024-03-06T05:24:44;42.53;;;15.70;;
3771;SDS011;1901;48.172;12.824;2024-03-06T05:27:10;42.07;;;15.87;;
3771;SDS011;1901;48.172;12.824;2024-03-06T05:29:38;43.30;;;16.05;;
3771;SDS011;1901;48.172;12.824;2024-03-06T05:32:03;28.90;;;13.88;;
3771;SDS011;1901;48.172;12.824;2024-03-06T05:34:29;34.53;;;14.03;;
3771;SDS011;1901;48.172;12.824;2024-03-06T05:36:54;46.28;;;16.73;;
3771;SDS011;1901;48.172;12.824;2024-03-06T05:39:20;36.63;;;14.25;;
3771;SDS011;1901;48.172;12.824;2024-03-06T05:41:45;32.05;;;14.13;;
3771;SDS011;1901;48.172;12.824;2024-03-06T05:44:10;39.92;;;13.95;;
3771;SDS011;1901;48.172;12.824;2024-03-06T05:46:35;32.60;;;13.33;;
3771;SDS011;1901;48.172;12.824;2024-03-06T05:49:01;34.67;;;14.20;;
3771;SDS011;1901;48.172;12.824;2024-03-06T05:51:27;34.08;;;14.38;;
3771;SDS011;1901;48.172;12.824;2024-03-06T05:53:52;35.63;;;13.50;;
3771;SDS011;1901;48.172;12.824;2024-03-06T05:56:18;35.70;;;15.23;;
3771;SDS011;1901;48.172;12.824;2024-03-06T05:58:43;33.55;;;13.63;;
3771;SDS011;1901;48.172;12.824;2024-03-06T06:01:11;31.10;;;13.40;;
3771;SDS011;1901;48.172;12.824;2024-03-06T06:03:36;29.88;;;13.23;;
3771;SDS011;1901;48.172;12.824;2024-03-06T06:06:01;32.10;;;14.00;;
3771;SDS011;1901;48.172;12.824;2024-03-06T06:08:27;33.10;;;14.27;;
3771;SDS011;1901;48.172;12.824;2024-03-06T06:10:53;33.27;;;13.10;;
3771;SDS011;1901;48.172;12.824;2024-03-06T06:13:19;30.00;;;12.65;;
3771;SDS011;1901;48.172;12.824;2024-03-06T06:15:44;26.37;;;11.73;;
3771;SDS011;1901;48.172;12.824;2024-03-06T06:18:10;32.30;;;12.70;;
3771;SDS011;1901;48.172;12.824;2024-03-06T06:20:35;26.77;;;11.97;;
3771;SDS011;1901;48.172;12.824;2024-03-06T06:23:00;33.80;;;13.87;;
3771;SDS011;1901;48.172;12.824;2024-03-06T06:25:25;30.75;;;12.45;;
3771;SDS011;1901;48.172;12.824;2024-03-06T06:27:51;31.95;;;13.32;;
3771;SDS011;1901;48.172;12.824;2024-03-06T06:30:16;26.27;;;12.48;;
3771;SDS011;1901;48.172;12.824;2024-03-06T06:32:42;30.92;;;12.95;;
3771;SDS011;1901;48.172;12.824;2024-03-06T06:35:07;30.40;;;13.00;;
3771;SDS011;1901;48.172;12.824;2024-03-06T06:37:34;28.13;;;12.25;;
3771;SDS011;1901;48.172;12.824;2024-03-06T06:39:59;32.33;;;13.10;;
3771;SDS011;1901;48.172;12.824;2024-03-06T06:42:24;29.43;;;14.07;;
3771;SDS011;1901;48.172;12.824;2024-03-06T06:44:49;35.20;;;12.50;;
3771;SDS011;1901;48.172;12.824;2024-03-06T06:47:15;32.45;;;12.93;;
3771;SDS011;1901;48.172;12.824;2024-03-06T06:49:40;31.17;;;14.00;;
3771;SDS011;1901;48.172;12.824;2024-03-06T06:52:05;31.70;;;13.90;;
3771;SDS011;1901;48.172;12.824;2024-03-06T06:54:30;29.47;;;13.10;;
3771;SDS011;1901;48.172;12.824;2024-03-06T06:56:56;34.33;;;14.13;;
3771;SDS011;1901;48.172;12.824;2024-03-06T06:59:21;29.75;;;12.55;;
3771;SDS011;1901;48.172;12.824;2024-03-06T07:01:48;26.70;;;12.02;;
3771;SDS011;1901;48.172;12.824;2024-03-06T07:04:13;26.15;;;11.25;;
3771;SDS011;1901;48.172;12.824;2024-03-06T07:06:41;21.02;;;9.90;;
3771;SDS011;1901;48.172;12.824;2024-03-06T07:09:06;25.38;;;10.77;;
3771;SDS011;1901;48.172;12.824;2024-03-06T07:11:34;22.08;;;9.88;;
3771;SDS011;1901;48.172;12.824;2024-03-06T07:13:59;26.33;;;10.83;;
3771;SDS011;1901;48.172;12.824;2024-03-06T07:16:24;24.60;;;10.10;;
3771;SDS011;1901;48.172;12.824;2024-03-06T07:18:50;27.95;;;10.55;;
3771;SDS011;1901;48.172;12.824;2024-03-06T07:21:15;19.83;;;9.70;;
3771;SDS011;1901;48.172;12.824;2024-03-06T07:23:40;23.13;;;10.73;;
3771;SDS011;1901;48.172;12.824;2024-03-06T07:26:05;29.10;;;11.50;;
3771;SDS011;1901;48.172;12.824;2024-03-06T07:28:30;28.20;;;11.87;;
3771;SDS011;1901;48.172;12.824;2024-03-06T07:30:55;29.35;;;11.63;;
3771;SDS011;1901;48.172;12.824;2024-03-06T07:33:21;25.70;;;10.53;;
3771;SDS011;1901;48.172;12.824;2024-03-06T07:35:46;26.37;;;9.93;;
3771;SDS011;1901;48.172;12.824;2024-03-06T07:38:11;23.43;;;10.53;;
3771;SDS011;1901;48.172;12.824;2024-03-06T07:40:36;20.60;;;9.33;;
3771;SDS011;1901;48.172;12.824;2024-03-06T07:43:01;27.47;;;10.53;;
3771;SDS011;1901;48.172;12.824;2024-03-06T07:45:27;30.08;;;11.80;;
3771;SDS011;1901;48.172;12.824;2024-03-06T07:47:52;25.20;;;10.98;;
3771;SDS011;1901;48.172;12.824;2024-03-06T07:50:17;22.80;;;10.67;;
3771;SDS011;1901;48.172;12.824;2024-03-06T07:52:44;24.77;;;10.60;;
3771;SDS011;1901;48.172;12.824;2024-03-06T07:55:10;24.50;;;9.80;;
3771;SDS011;1901;48.172;12.824;2024-03-06T07:57:35;20.90;;;9.57;;
3771;SDS011;1901;48.172;12.824;2024-03-06T08:00:00;22.03;;;9.83;;
3771;SDS011;1901;48.172;12.824;2024-03-06T08:02:25;23.83;;;10.00;;
3771;SDS011;1901;48.172;12.824;2024-03-06T08:04:50;24.23;;;10.03;;
3771;SDS011;1901;48.172;12.824;2024-03-06T08:07:15;22.77;;;10.97;;
3771;SDS011;1901;48.172;12.824;2024-03-06T08:09:41;23.13;;;10.83;;
3771;SDS011;1901;48.172;12.824;2024-03-06T08:12:06;25.02;;;10.13;;
3771;SDS011;1901;48.172;12.824;2024-03-06T08:14:31;24.77;;;10.25;;
3771;SDS011;1901;48.172;12.824;2024-03-06T08:16:56;22.90;;;9.70;;
3771;SDS011;1901;48.172;12.824;2024-03-06T08:19:22;24.83;;;9.45;;
3771;SDS011;1901;48.172;12.824;2024-03-06T08:21:49;25.67;;;9.85;;
3771;SDS011;1901;48.172;12.824;2024-03-06T08:24:15;20.00;;;8.60;;
3771;SDS011;1901;48.172;12.824;2024-03-06T08:26:42;19.13;;;9.32;;
3771;SDS011;1901;48.172;12.824;2024-03-06T08:29:07;27.20;;;8.97;;
3771;SDS011;1901;48.172;12.824;2024-03-06T08:31:32;17.87;;;8.20;;
3771;SDS011;1901;48.172;12.824;2024-03-06T08:33:57;20.93;;;9.50;;
3771;SDS011;1901;48.172;12.824;2024-03-06T08:36:23;14.83;;;6.20;;
3771;SDS011;1901;48.172;12.824;2024-03-06T08:38:49;24.88;;;9.45;;
3771;SDS011;1901;48.172;12.824;2024-03-06T08:41:14;20.60;;;9.00;;
3771;SDS011;1901;48.172;12.824;2024-03-06T08:43:39;17.00;;;8.10;;
3771;SDS011;1901;48.172;12.824;2024-03-06T08:46:05;24.17;;;9.80;;
3771;SDS011;1901;48.172;12.824;2024-03-06T08:48:30;32.73;;;9.83;;
3771;SDS011;1901;48.172;12.824;2024-03-06T08:50:55;28.53;;;9.57;;
3771;SDS011;1901;48.172;12.824;2024-03-06T08:53:20;20.67;;;9.07;;
3771;SDS011;1901;48.172;12.824;2024-03-06T08:55:46;17.00;;;7.53;;
3771;SDS011;1901;48.172;12.824;2024-03-06T08:58:12;22.05;;;8.63;;
3771;SDS011;1901;48.172;12.824;2024-03-06T09:00:39;20.83;;;9.85;;
3771;SDS011;1901;48.172;12.824;2024-03-06T09:03:04;23.27;;;9.70;;
3771;SDS011;1901;48.172;12.824;2024-03-06T09:05:30;18.98;;;8.35;;
3771;SDS011;1901;48.172;12.824;2024-03-06T09:07:55;24.53;;;10.07;;
3771;SDS011;1901;48.172;12.824;2024-03-06T09:10:22;20.52;;;9.93;;
3771;SDS011;1901;48.172;12.824;2024-03-06T09:12:47;20.07;;;9.30;;
3771;SDS011;1901;48.172;12.824;2024-03-06T09:15:14;20.77;;;8.50;;
3771;SDS011;1901;48.172;12.824;2024-03-06T09:17:39;18.83;;;8.68;;
3771;SDS011;1901;48.172;12.824;2024-03-06T09:20:05;20.00;;;9.23;;
3771;SDS011;1901;48.172;12.824;2024-03-06T09:22:39;21.50;;;8.73;;
3771;SDS011;1901;48.172;12.824;2024-03-06T09:25:05;19.08;;;7.35;;
3771;SDS011;1901;48.172;12.824;2024-03-06T09:27:30;20.85;;;8.30;;
3771;SDS011;1901;48.172;12.824;2024-03-06T09:29:55;20.43;;;8.57;;
3771;SDS011;1901;48.172;12.824;2024-03-06T09:32:21;17.85;;;8.02;;
3771;SDS011;1901;48.172;12.824;2024-03-06T09:34:47;24.60;;;9.00;;
3771;SDS011;1901;48.172;12.824;2024-03-06T09:37:13;23.10;;;9.77;;
3771;SDS011;1901;48.172;12.824;2024-03-06T09:39:38;20.43;;;8.47;;
3771;SDS011;1901;48.172;12.824;2024-03-06T09:42:03;21.80;;;9.90;;
3771;SDS011;1901;48.172;12.824;2024-03-06T09:44:29;20.60;;;8.77;;
3771;SDS011;1901;48.172;12.824;2024-03-06T09:46:54;25.63;;;9.45;;
3771;SDS011;1901;48.172;12.824;2024-03-06T09:49:19;20.15;;;8.38;;
3771;SDS011;1901;48.172;12.824;2024-03-06T09:51:45;22.58;;;9.52;;
3771;SDS011;1901;48.172;12.824;2024-03-06T09:54:11;19.50;;;8.40;;
3771;SDS011;1901;48.172;12.824;2024-03-06T09:56:36;16.45;;;6.40;;
3771;SDS011;1901;48.172;12.824;2024-03-06T09:59:02;14.00;;;6.72;;
3771;SDS011;1901;48.172;12.824;2024-03-06T10:01:28;16.33;;;7.55;;
3771;SDS011;1901;48.172;12.824;2024-03-06T10:03:54;19.08;;;8.63;;
3771;SDS011;1901;48.172;12.824;2024-03-06T10:06:19;21.07;;;8.43;;
3771;SDS011;1901;48.172;12.824;2024-03-06T10:08:45;20.90;;;8.95;;
3771;SDS011;1901;48.172;12.824;2024-03-06T10:11:12;21.50;;;9.23;;
3771;SDS011;1901;48.172;12.824;2024-03-06T10:13:37;17.10;;;7.80;;
3771;SDS011;1901;48.172;12.824;2024-03-06T10:16:03;21.23;;;8.83;;
3771;SDS011;1901;48.172;12.824;2024-03-06T10:18:29;21.13;;;8.38;;
3771;SDS011;1901;48.172;12.824;2024-03-06T10:20:54;18.23;;;8.18;;
3771;SDS011;1901;48.172;12.824;2024-03-06T10:23:20;23.05;;;8.52;;
3771;SDS011;1901;48.172;12.824;2024-03-06T10:25:48;18.92;;;8.27;;
3771;SDS011;1901;48.172;12.824;2024-03-06T10:28:20;19.48;;;8.00;;
3771;SDS011;1901;48.172;12.824;2024-03-06T10:30:45;18.50;;;8.23;;
3771;SDS011;1901;48.172;12.824;2024-03-06T10:33:11;20.00;;;7.15;;
3771;SDS011;1901;48.172;12.824;2024-03-06T10:35:36;17.73;;;8.10;;
3771;SDS011;1901;48.172;12.824;2024-03-06T10:38:05;18.77;;;7.60;;
3771;SDS011;1901;48.172;12.824;2024-03-06T10:40:30;24.30;;;8.63;;
3771;SDS011;1901;48.172;12.824;2024-03-06T10:42:56;19.85;;;8.23;;
3771;SDS011;1901;48.172;12.824;2024-03-06T10:45:23;19.67;;;8.77;;
3771;SDS011;1901;48.172;12.824;2024-03-06T10:47:50;19.55;;;7.68;;
3771;SDS011;1901;48.172;12.824;2024-03-06T10:50:16;20.42;;;7.97;;
3771;SDS011;1901;48.172;12.824;2024-03-06T10:52:42;18.45;;;8.35;;
3771;SDS011;1901;48.172;12.824;2024-03-06T10:55:09;18.63;;;7.65;;
3771;SDS011;1901;48.172;12.824;2024-03-06T10:57:36;17.27;;;7.15;;
3771;SDS011;1901;48.172;12.824;2024-03-06T11:00:02;18.90;;;7.65;;
3771;SDS011;1901;48.172;12.824;2024-03-06T11:02:28;21.02;;;7.97;;
3771;SDS011;1901;48.172;12.824;2024-03-06T11:04:54;19.58;;;8.00;;
3771;SDS011;1901;48.172;12.824;2024-03-06T11:07:19;18.80;;;7.57;;
3771;SDS011;1901;48.172;12.824;2024-03-06T11:09:44;20.60;;;8.15;;
3771;SDS011;1901;48.172;12.824;2024-03-06T11:12:13;17.05;;;7.65;;
3771;SDS011;1901;48.172;12.824;2024-03-06T11:14:38;20.38;;;8.13;;
3771;SDS011;1901;48.172;12.824;2024-03-06T11:17:05;16.98;;;7.13;;
3771;SDS011;1901;48.172;12.824;2024-03-06T11:19:31;20.80;;;7.43;;
3771;SDS011;1901;48.172;12.824;2024-03-06T11:21:57;23.00;;;8.35;;
3771;SDS011;1901;48.172;12.824;2024-03-06T11:24:23;17.15;;;8.13;;
3771;SDS011;1901;48.172;12.824;2024-03-06T11:26:55;22.13;;;8.45;;
3771;SDS011;1901;48.172;12.824;2024-03-06T11:29:22;19.75;;;7.65;;
3771;SDS011;1901;48.172;12.824;2024-03-06T11:32:03;19.00;;;8.63;;
3771;SDS011;1901;48.172;12.824;2024-03-06T11:34:31;21.25;;;7.47;;
3771;SDS011;1901;48.172;12.824;2024-03-06T11:36:57;21.80;;;8.27;;
3771;SDS011;1901;48.172;12.824;2024-03-06T11:39:22;20.40;;;8.52;;
3771;SDS011;1901;48.172;12.824;2024-03-06T11:41:48;18.65;;;7.93;;
3771;SDS011;1901;48.172;12.824;2024-03-06T11:44:20;20.38;;;8.13;;
3771;SDS011;1901;48.172;12.824;2024-03-06T11:46:47;22.23;;;7.80;;
3771;SDS011;1901;48.172;12.824;2024-03-06T11:51:45;19.27;;;8.35;;
3771;SDS011;1901;48.172;12.824;2024-03-06T11:54:11;20.67;;;8.63;;
3771;SDS011;1901;48.172;12.824;2024-03-06T11:56:38;18.10;;;7.70;;
3771;SDS011;1901;48.172;12.824;2024-03-06T11:59:03;26.73;;;9.32;;
3771;SDS011;1901;48.172;12.824;2024-03-06T12:01:30;22.52;;;8.55;;
3771;SDS011;1901;48.172;12.824;2024-03-06T12:03:55;24.40;;;8.98;;
3771;SDS011;1901;48.172;12.824;2024-03-06T12:06:20;20.60;;;9.00;;
3771;SDS011;1901;48.172;12.824;2024-03-06T12:08:47;18.50;;;7.72;;
3771;SDS011;1901;48.172;12.824;2024-03-06T12:11:12;25.20;;;9.57;;
3771;SDS011;1901;48.172;12.824;2024-03-06T12:13:38;24.80;;;9.90;;
3771;SDS011;1901;48.172;12.824;2024-03-06T12:16:06;23.37;;;9.40;;
3771;SDS011;1901;48.172;12.824;2024-03-06T12:18:32;22.73;;;9.35;;
3771;SDS011;1901;48.172;12.824;2024-03-06T12:20:59;21.33;;;8.82;;
3771;SDS011;1901;48.172;12.824;2024-03-06T12:23:25;21.80;;;9.13;;
3771;SDS011;1901;48.172;12.824;2024-03-06T12:26:05;23.05;;;8.90;;
3771;SDS011;1901;48.172;12.824;2024-03-06T12:28:31;22.60;;;9.57;;
3771;SDS011;1901;48.172;12.824;2024-03-06T12:30:56;18.87;;;8.40;;
3771;SDS011;1901;48.172;12.824;2024-03-06T12:33:25;20.85;;;9.10;;
3771;SDS011;1901;48.172;12.824;2024-03-06T12:36:00;20.07;;;9.07;;
3771;SDS011;1901;48.172;12.824;2024-03-06T12:38:25;20.45;;;9.50;;
3771;SDS011;1901;48.172;12.824;2024-03-06T12:40:54;22.48;;;9.48;;
3771;SDS011;1901;48.172;12.824;2024-03-06T12:43:19;22.40;;;8.90;;
3771;SDS011;1901;48.172;12.824;2024-03-06T12:45:44;21.05;;;9.23;;
3771;SDS011;1901;48.172;12.824;2024-03-06T12:48:09;23.73;;;9.83;;
3771;SDS011;1901;48.172;12.824;2024-03-06T12:50:34;18.20;;;8.60;;
3771;SDS011;1901;48.172;12.824;2024-03-06T12:52:59;27.03;;;10.23;;
3771;SDS011;1901;48.172;12.824;2024-03-06T12:55:24;25.53;;;10.63;;
3771;SDS011;1901;48.172;12.824;2024-03-06T12:57:51;24.60;;;10.90;;
3771;SDS011;1901;48.172;12.824;2024-03-06T13:00:16;23.20;;;10.27;;
3771;SDS011;1901;48.172;12.824;2024-03-06T13:02:42;20.65;;;9.35;;
3771;SDS011;1901;48.172;12.824;2024-03-06T13:05:07;23.73;;;9.80;;
3771;SDS011;1901;48.172;12.824;2024-03-06T13:07:33;17.50;;;8.60;;
3771;SDS011;1901;48.172;12.824;2024-03-06T13:09:58;20.40;;;8.90;;
3771;SDS011;1901;48.172;12.824;2024-03-06T13:12:23;21.37;;;9.63;;
3771;SDS011;1901;48.172;12.824;2024-03-06T13:14:48;22.70;;;10.57;;
3771;SDS011;1901;48.172;12.824;2024-03-06T13:17:13;21.98;;;9.38;;
3771;SDS011;1901;48.172;12.824;2024-03-06T13:19:38;22.63;;;9.20;;
3771;SDS011;1901;48.172;12.824;2024-03-06T13:22:03;19.83;;;9.45;;
3771;SDS011;1901;48.172;12.824;2024-03-06T13:24:31;21.48;;;9.40;;
3771;SDS011;1901;48.172;12.824;2024-03-06T13:26:57;24.50;;;10.20;;
3771;SDS011;1901;48.172;12.824;2024-03-06T13:29:22;20.87;;;9.33;;
3771;SDS011;1901;48.172;12.824;2024-03-06T13:31:47;21.77;;;9.07;;
3771;SDS011;1901;48.172;12.824;2024-03-06T13:34:12;21.90;;;10.13;;
3771;SDS011;1901;48.172;12.824;2024-03-06T13:36:37;22.13;;;9.50;;
3771;SDS011;1901;48.172;12.824;2024-03-06T13:39:02;24.70;;;9.93;;
3771;SDS011;1901;48.172;12.824;2024-03-06T13:41:28;19.90;;;9.07;;
3771;SDS011;1901;48.172;12.824;2024-03-06T13:43:54;20.90;;;9.32;;
3771;SDS011;1901;48.172;12.824;2024-03-06T13:46:19;27.15;;;9.85;;
3771;SDS011;1901;48.172;12.824;2024-03-06T13:48:45;21.57;;;10.10;;
3771;SDS011;1901;48.172;12.824;2024-03-06T13:51:11;22.70;;;9.90;;
3771;SDS011;1901;48.172;12.824;2024-03-06T13:53:36;23.63;;;9.07;;
3771;SDS011;1901;48.172;12.824;2024-03-06T13:56:01;19.63;;;9.05;;
3771;SDS011;1901;48.172;12.824;2024-03-06T13:58:26;21.27;;;9.53;;
3771;SDS011;1901;48.172;12.824;2024-03-06T14:00:51;19.93;;;9.47;;
3771;SDS011;1901;48.172;12.824;2024-03-06T14:03:16;22.00;;;9.90;;
3771;SDS011;1901;48.172;12.824;2024-03-06T14:05:42;22.13;;;9.37;;
3771;SDS011;1901;48.172;12.824;2024-03-06T14:08:07;21.37;;;8.70;;
3771;SDS011;1901;48.172;12.824;2024-03-06T14:10:35;21.42;;;8.77;;
3771;SDS011;1901;48.172;12.824;2024-03-06T14:13:02;21.35;;;9.90;;
3771;SDS011;1901;48.172;12.824;2024-03-06T14:15:27;21.38;;;10.07;;
3771;SDS011;1901;48.172;12.824;2024-03-06T14:17:52;21.85;;;9.13;;
3771;SDS011;1901;48.172;12.824;2024-03-06T14:20:22;18.92;;;9.23;;
3771;SDS011;1901;48.172;12.824;2024-03-06T14:22:47;22.23;;;8.90;;
3771;SDS011;1901;48.172;12.824;2024-03-06T14:25:12;20.67;;;9.33;;
3771;SDS011;1901;48.172;12.824;2024-03-06T14:27:37;25.40;;;10.20;;
3771;SDS011;1901;48.172;12.824;2024-03-06T14:30:03;17.63;;;8.70;;
3771;SDS011;1901;48.172;12.824;2024-03-06T14:32:29;19.48;;;8.90;;
3771;SDS011;1901;48.172;12.824;2024-03-06T14:34:54;20.30;;;8.50;;
3771;SDS011;1901;48.172;12.824;2024-03-06T14:37:19;19.65;;;9.35;;